createdAt,value
2023-04-02T00:00:48.569Z,0.00
2023-04-02T00:01:48.708Z,0.00
2023-04-02T00:02:48.735Z,0.00
2023-04-02T00:03:48.906Z,0.00
2023-04-02T00:04:48.907Z,0.00
2023-04-02T00:05:49.034Z,0.00
2023-04-02T00:06:49.187Z,0.00
2023-04-02T00:07:49.241Z,0.00
2023-04-02T00:08:49.398Z,0.00
2023-04-02T00:09:49.486Z,0.00
2023-04-02T00:10:49.594Z,0.00
2023-04-02T00:11:49.707Z,0.00
2023-04-02T00:12:49.863Z,0.00
2023-04-02T00:13:49.964Z,0.00
2023-04-02T00:14:50.264Z,0.00
2023-04-02T00:15:50.205Z,0.00
2023-04-02T00:16:50.313Z,0.00
2023-04-02T00:17:50.427Z,0.00
2023-04-02T00:18:50.515Z,0.00
2023-04-02T00:19:50.812Z,0.00
2023-04-02T00:20:50.745Z,0.00
2023-04-02T00:21:50.939Z,0.00
2023-04-02T00:22:50.974Z,0.00
2023-04-02T00:23:51.080Z,0.00
2023-04-02T00:24:51.311Z,0.00
2023-04-02T00:25:51.457Z,0.00
2023-04-02T00:26:51.429Z,0.00
2023-04-02T00:27:51.602Z,0.00
2023-04-02T00:28:51.680Z,0.00
2023-04-02T00:29:51.810Z,0.00
2023-04-02T00:30:51.914Z,0.00
2023-04-02T00:31:52.009Z,0.00
2023-04-02T00:32:52.418Z,0.00
2023-04-02T00:33:52.258Z,0.00
2023-04-02T00:34:52.413Z,0.00
2023-04-02T00:35:52.518Z,0.00
2023-04-02T00:36:52.586Z,0.00
2023-04-02T00:37:52.716Z,0.00
2023-04-02T00:38:52.774Z,0.00
2023-04-02T00:39:52.899Z,0.00
2023-04-02T00:40:52.997Z,0.00
2023-04-02T00:41:53.813Z,0.00
2023-04-02T00:42:53.262Z,0.00
2023-04-02T00:43:53.374Z,0.00
2023-04-02T00:44:53.544Z,0.00
2023-04-02T00:45:53.612Z,0.00
2023-04-02T00:46:53.701Z,0.00
2023-04-02T00:47:53.839Z,0.00
2023-04-02T00:48:54.015Z,0.00
2023-04-02T00:49:54.040Z,0.00
2023-04-02T00:50:54.362Z,0.00
2023-04-02T00:51:54.295Z,0.00
2023-04-02T00:52:54.454Z,0.00
2023-04-02T00:53:54.462Z,0.00
2023-04-02T00:54:54.580Z,0.00
2023-04-02T00:55:54.765Z,0.00
2023-04-02T00:56:54.864Z,0.00
2023-04-02T00:57:54.916Z,0.00
2023-04-02T00:58:55.050Z,0.00
2023-04-02T00:59:55.173Z,0.00
2023-04-02T01:00:55.388Z,0.00
2023-04-02T01:01:55.401Z,0.00
2023-04-02T01:02:55.543Z,0.00
2023-04-02T01:03:55.692Z,0.00
2023-04-02T01:04:55.723Z,0.00
2023-04-02T01:05:55.866Z,0.00
2023-04-02T01:06:55.920Z,0.00
2023-04-02T01:07:56.039Z,0.00
2023-04-02T01:08:56.135Z,0.00
2023-04-02T01:09:56.292Z,0.00
2023-04-02T01:10:56.526Z,0.00
2023-04-02T01:11:56.509Z,0.00
2023-04-02T01:12:56.608Z,0.00
2023-04-02T01:13:56.739Z,0.00
2023-04-02T01:14:56.846Z,0.00
2023-04-02T01:15:57.024Z,0.00
2023-04-02T01:16:57.255Z,0.00
2023-04-02T01:17:57.237Z,0.00
2023-04-02T01:18:57.344Z,0.00
2023-04-02T01:19:57.394Z,0.00
2023-04-02T01:20:57.518Z,0.00
2023-04-02T01:21:57.723Z,0.00
2023-04-02T01:22:57.744Z,0.00
2023-04-02T01:23:57.873Z,0.00
2023-04-02T01:24:57.956Z,0.00
2023-04-02T01:25:58.095Z,0.00
2023-04-02T01:26:58.211Z,0.00
2023-04-02T01:27:58.395Z,0.00
2023-04-02T01:28:58.492Z,0.00
2023-04-02T01:29:58.592Z,0.00
2023-04-02T01:30:58.710Z,0.00
2023-04-02T01:31:58.824Z,0.00
2023-04-02T01:32:59.001Z,0.00
2023-04-02T01:33:59.010Z,0.00
2023-04-02T01:34:59.159Z,0.00
2023-04-02T01:35:59.318Z,0.00
2023-04-02T01:36:59.383Z,0.00
2023-04-02T01:37:59.463Z,0.00
2023-04-02T01:38:59.575Z,0.00
2023-04-02T01:39:59.728Z,0.00
2023-04-02T01:40:59.854Z,0.00
2023-04-02T01:42:00.011Z,0.00
2023-04-02T01:43:00.047Z,0.00
2023-04-02T01:44:00.258Z,0.00
2023-04-02T01:45:00.295Z,0.00
2023-04-02T01:46:00.371Z,0.00
2023-04-02T01:47:00.466Z,0.00
2023-04-02T01:48:00.605Z,0.00
2023-04-02T01:49:00.700Z,0.00
2023-04-02T01:50:00.828Z,0.00
2023-04-02T01:51:00.982Z,0.00
2023-04-02T01:52:01.039Z,0.00
2023-04-02T01:53:01.189Z,0.00
2023-04-02T01:54:01.263Z,0.00
2023-04-02T01:55:01.385Z,0.00
2023-04-02T01:56:01.527Z,0.00
2023-04-02T01:57:01.621Z,0.00
2023-04-02T01:58:01.735Z,0.00
2023-04-02T01:59:01.834Z,0.00
2023-04-02T02:00:01.982Z,0.00
2023-04-02T02:01:02.099Z,0.00
2023-04-02T02:02:02.330Z,0.00
2023-04-02T02:03:02.325Z,0.00
2023-04-02T02:04:02.390Z,0.00
2023-04-02T02:05:02.514Z,0.00
2023-04-02T02:06:02.588Z,0.00
2023-04-02T02:07:02.728Z,0.00
2023-04-02T02:08:02.894Z,0.00
2023-04-02T02:09:02.953Z,0.00
2023-04-02T02:10:03.079Z,0.00
2023-04-02T02:11:03.217Z,0.00
2023-04-02T02:12:03.363Z,0.00
2023-04-02T02:13:03.392Z,0.00
2023-04-02T02:14:03.530Z,0.00
2023-04-02T02:15:03.644Z,0.00
2023-04-02T02:16:03.833Z,0.00
2023-04-02T02:17:03.894Z,0.00
2023-04-02T02:18:04.604Z,0.00
2023-04-02T02:19:04.135Z,0.00
2023-04-02T02:20:04.302Z,0.00
2023-04-02T02:21:04.392Z,0.00
2023-04-02T02:22:04.636Z,0.00
2023-04-02T02:23:04.594Z,0.00
2023-04-02T02:24:04.739Z,0.00
2023-04-02T02:25:04.876Z,0.00
2023-04-02T02:26:04.974Z,0.00
2023-04-02T02:27:05.102Z,0.00
2023-04-02T02:28:05.798Z,0.00
2023-04-02T02:29:05.275Z,0.00
2023-04-02T02:30:05.435Z,0.00
2023-04-02T02:31:05.519Z,0.00
2023-04-02T02:32:05.779Z,0.00
2023-04-02T02:33:05.780Z,0.00
2023-04-02T02:34:05.863Z,0.00
2023-04-02T02:35:06.095Z,0.00
2023-04-02T02:36:06.146Z,0.00
2023-04-02T02:37:06.268Z,0.00
2023-04-02T02:38:06.322Z,0.00
2023-04-02T02:39:06.482Z,0.00
2023-04-02T02:40:06.558Z,0.00
2023-04-02T02:41:06.660Z,0.00
2023-04-02T02:42:06.837Z,0.00
2023-04-02T02:43:06.909Z,0.00
2023-04-02T02:44:07.044Z,0.00
2023-04-02T02:45:07.074Z,0.00
2023-04-02T02:46:07.247Z,0.00
2023-04-02T02:47:07.324Z,0.00
2023-04-02T02:48:07.551Z,0.00
2023-04-02T02:49:07.615Z,0.00
2023-04-02T02:50:07.668Z,0.00
2023-04-02T02:51:07.758Z,0.00
2023-04-02T02:52:07.891Z,0.00
2023-04-02T02:53:08.172Z,0.00
2023-04-02T02:54:08.154Z,0.00
2023-04-02T02:55:08.402Z,0.00
2023-04-02T02:56:08.341Z,0.00
2023-04-02T02:57:08.509Z,0.00
2023-04-02T02:58:09.088Z,0.00
2023-04-02T02:59:08.736Z,0.00
2023-04-02T03:00:08.885Z,0.00
2023-04-02T03:01:08.942Z,0.00
2023-04-02T03:02:09.180Z,0.00
2023-04-02T03:03:09.209Z,0.00
2023-04-02T03:04:09.373Z,0.00
2023-04-02T03:05:09.438Z,0.00
2023-04-02T03:06:09.530Z,0.00
2023-04-02T03:07:09.584Z,0.00
2023-04-02T03:08:09.685Z,0.00
2023-04-02T03:09:09.782Z,0.00
2023-04-02T03:10:09.927Z,0.00
2023-04-02T03:11:10.005Z,0.00
2023-04-02T03:12:10.202Z,0.00
2023-04-02T03:13:10.268Z,0.00
2023-04-02T03:14:10.351Z,0.00
2023-04-02T03:15:10.987Z,0.00
2023-04-02T03:16:10.752Z,0.00
2023-04-02T03:17:10.805Z,0.00
2023-04-02T03:18:10.798Z,0.00
2023-04-02T03:19:10.959Z,0.00
2023-04-02T03:20:11.352Z,0.00
2023-04-02T03:21:11.180Z,0.00
2023-04-02T03:22:13.892Z,0.00
2023-04-02T03:23:11.418Z,0.00
2023-04-02T03:24:11.551Z,0.00
2023-04-02T03:25:11.635Z,0.00
2023-04-02T03:26:11.862Z,0.00
2023-04-02T03:27:11.884Z,0.00
2023-04-02T03:28:11.970Z,0.00
2023-04-02T03:29:12.183Z,0.00
2023-04-02T03:30:12.273Z,0.00
2023-04-02T03:31:12.431Z,0.00
2023-04-02T03:32:12.449Z,0.00
2023-04-02T03:33:12.561Z,0.00
2023-04-02T03:34:12.677Z,0.00
2023-04-02T03:35:12.780Z,0.00
2023-04-02T03:36:13.044Z,0.00
2023-04-02T03:37:13.126Z,0.00
2023-04-02T03:38:13.184Z,0.00
2023-04-02T03:39:13.307Z,0.00
2023-04-02T03:40:13.448Z,0.00
2023-04-02T03:41:13.506Z,0.00
2023-04-02T03:42:13.663Z,0.00
2023-04-02T03:43:13.789Z,0.00
2023-04-02T03:44:13.858Z,0.00
2023-04-02T03:45:13.942Z,0.00
2023-04-02T03:46:14.095Z,0.00
2023-04-02T03:47:14.183Z,0.00
2023-04-02T03:48:14.277Z,0.00
2023-04-02T03:49:14.424Z,0.00
2023-04-02T03:50:14.554Z,0.00
2023-04-02T03:51:14.646Z,0.00
2023-04-02T03:52:14.804Z,0.00
2023-04-02T03:53:14.887Z,0.00
2023-04-02T03:54:14.968Z,0.00
2023-04-02T03:55:15.068Z,0.00
2023-04-02T03:56:15.202Z,0.00
2023-04-02T03:57:15.414Z,0.00
2023-04-02T03:58:15.479Z,0.00
2023-04-02T03:59:15.510Z,0.00
2023-04-02T04:00:15.696Z,0.00
2023-04-02T04:01:15.756Z,0.00
2023-04-02T04:02:15.922Z,0.00
2023-04-02T04:03:16.012Z,0.00
2023-04-02T04:04:16.149Z,0.00
2023-04-02T04:05:16.178Z,0.00
2023-04-02T04:06:16.360Z,0.00
2023-04-02T04:07:16.469Z,0.00
2023-04-02T04:08:16.620Z,0.00
2023-04-02T04:09:16.658Z,0.00
2023-04-02T04:10:16.770Z,0.00
2023-04-02T04:11:17.081Z,0.00
2023-04-02T04:12:17.028Z,0.00
2023-04-02T04:13:17.137Z,0.00
2023-04-02T04:14:17.240Z,0.00
2023-04-02T04:15:17.390Z,0.00
2023-04-02T04:16:17.512Z,0.00
2023-04-02T04:17:17.576Z,0.00
2023-04-02T04:18:17.739Z,0.00
2023-04-02T04:19:17.839Z,0.00
2023-04-02T04:20:17.980Z,0.00
2023-04-02T04:21:18.045Z,0.00
2023-04-02T04:22:18.222Z,0.00
2023-04-02T04:23:18.258Z,0.00
2023-04-02T04:24:18.326Z,0.00
2023-04-02T04:25:18.444Z,0.00
2023-04-02T04:26:18.587Z,0.00
2023-04-02T04:27:18.684Z,0.00
2023-04-02T04:28:18.830Z,0.00
2023-04-02T04:29:18.938Z,0.00
2023-04-02T04:30:19.012Z,0.00
2023-04-02T04:31:19.171Z,0.00
2023-04-02T04:32:19.322Z,0.00
2023-04-02T04:33:19.371Z,0.00
2023-04-02T04:34:19.510Z,0.00
2023-04-02T04:35:19.640Z,0.00
2023-04-02T04:36:19.812Z,0.00
2023-04-02T04:37:19.839Z,0.00
2023-04-02T04:38:19.960Z,0.00
2023-04-02T04:39:20.060Z,0.00
2023-04-02T04:40:20.203Z,0.00
2023-04-02T04:41:20.250Z,0.00
2023-04-02T04:42:20.435Z,0.00
2023-04-02T04:43:20.568Z,0.00
2023-04-02T04:44:20.585Z,0.00
2023-04-02T04:45:20.695Z,0.00
2023-04-02T04:46:20.884Z,0.00
2023-04-02T04:47:20.957Z,0.00
2023-04-02T04:48:21.061Z,4.00
2023-04-02T04:49:21.159Z,4.00
2023-04-02T04:50:21.294Z,4.00
2023-04-02T04:51:21.402Z,4.00
2023-04-02T04:52:21.507Z,4.00
2023-04-02T04:53:21.622Z,0.00
2023-04-02T04:54:21.745Z,4.00
2023-04-02T04:55:21.819Z,4.00
2023-04-02T04:56:22.044Z,4.00
2023-04-02T04:57:22.164Z,8.00
2023-04-02T04:58:22.191Z,4.00
2023-04-02T04:59:22.439Z,8.00
2023-04-02T05:00:22.377Z,8.00
2023-04-02T05:01:22.498Z,4.00
2023-04-02T05:02:22.768Z,8.00
2023-04-02T05:03:22.714Z,8.00
2023-04-02T05:04:22.940Z,8.00
2023-04-02T05:05:22.924Z,12.00
2023-04-02T05:06:23.074Z,12.00
2023-04-02T05:07:23.169Z,8.00
2023-04-02T05:08:23.271Z,12.00
2023-04-02T05:09:23.442Z,12.00
2023-04-02T05:10:23.480Z,16.00
2023-04-02T05:11:23.692Z,16.00
2023-04-02T05:12:23.741Z,16.00
2023-04-02T05:13:23.853Z,20.00
2023-04-02T05:14:24.011Z,24.00
2023-04-02T05:15:24.048Z,24.00
2023-04-02T05:16:24.238Z,28.00
2023-04-02T05:17:24.292Z,32.00
2023-04-02T05:18:24.407Z,32.00
2023-04-02T05:19:24.582Z,36.00
2023-04-02T05:20:24.606Z,40.00
2023-04-02T05:21:24.761Z,36.00
2023-04-02T05:22:24.911Z,40.00
2023-04-02T05:23:24.995Z,40.00
2023-04-02T05:24:25.099Z,44.00
2023-04-02T05:25:25.388Z,44.00
2023-04-02T05:26:25.455Z,48.00
2023-04-02T05:27:25.443Z,48.00
2023-04-02T05:28:25.550Z,56.00
2023-04-02T05:29:25.651Z,60.00
2023-04-02T05:30:25.796Z,64.00
2023-04-02T05:31:26.001Z,68.00
2023-04-02T05:32:25.999Z,72.00
2023-04-02T05:33:26.152Z,76.00
2023-04-02T05:34:26.181Z,84.00
2023-04-02T05:35:26.311Z,84.00
2023-04-02T05:36:26.534Z,84.00
2023-04-02T05:37:26.789Z,80.00
2023-04-02T05:38:26.650Z,80.00
2023-04-02T05:39:26.794Z,84.00
2023-04-02T05:40:26.887Z,92.00
2023-04-02T05:41:27.067Z,96.00
2023-04-02T05:42:27.177Z,112.00
2023-04-02T05:43:27.506Z,112.00
2023-04-02T05:44:27.361Z,124.00
2023-04-02T05:45:27.459Z,124.00
2023-04-02T05:46:27.643Z,132.00
2023-04-02T05:47:27.748Z,140.00
2023-04-02T05:48:27.801Z,152.00
2023-04-02T05:49:27.920Z,176.00
2023-04-02T05:50:28.084Z,188.00
2023-04-02T05:51:28.190Z,200.00
2023-04-02T05:52:28.269Z,196.00
2023-04-02T05:53:28.385Z,212.00
2023-04-02T05:54:28.519Z,216.00
2023-04-02T05:55:28.579Z,216.00
2023-04-02T05:56:28.694Z,200.00
2023-04-02T05:57:42.826Z,220.00
2023-04-02T05:58:36.089Z,208.00
2023-04-02T05:59:30.112Z,200.00
2023-04-02T06:00:29.175Z,204.00
2023-04-02T06:01:29.368Z,236.00
2023-04-02T06:02:29.618Z,240.00
2023-04-02T06:03:29.578Z,252.00
2023-04-02T06:04:29.653Z,248.00
2023-04-02T06:05:29.763Z,236.00
2023-04-02T06:06:29.852Z,284.00
2023-04-02T06:07:29.988Z,316.00
2023-04-02T06:08:30.176Z,328.00
2023-04-02T06:09:30.241Z,368.00
2023-04-02T06:10:30.393Z,352.00
2023-04-02T06:11:30.531Z,332.00
2023-04-02T06:12:30.675Z,336.00
2023-04-02T06:13:30.716Z,352.00
2023-04-02T06:14:30.837Z,328.00
2023-04-02T06:15:31.022Z,300.00
2023-04-02T06:16:31.141Z,292.00
2023-04-02T06:17:31.232Z,292.00
2023-04-02T06:18:31.360Z,312.00
2023-04-02T06:19:31.524Z,316.00
2023-04-02T06:20:31.581Z,312.00
2023-04-02T06:21:31.790Z,316.00
2023-04-02T06:22:32.093Z,308.00
2023-04-02T06:23:31.966Z,336.00
2023-04-02T06:24:32.011Z,352.00
2023-04-02T06:25:32.170Z,380.00
2023-04-02T06:26:32.275Z,388.00
2023-04-02T06:27:32.491Z,404.00
2023-04-02T06:28:32.581Z,440.00
2023-04-02T06:29:32.738Z,436.00
2023-04-02T06:30:32.934Z,468.00
2023-04-02T06:31:32.988Z,464.00
2023-04-02T06:32:33.171Z,532.00
2023-04-02T06:33:33.625Z,508.00
2023-04-02T06:34:33.430Z,496.00
2023-04-02T06:35:33.845Z,548.00
2023-04-02T06:36:33.683Z,496.00
2023-04-02T06:37:33.796Z,544.00
2023-04-02T06:38:33.932Z,488.00
2023-04-02T06:39:34.051Z,600.00
2023-04-02T06:40:34.160Z,608.00
2023-04-02T06:41:34.544Z,568.00
2023-04-02T06:42:34.463Z,580.00
2023-04-02T06:43:34.558Z,616.00
2023-04-02T06:44:34.717Z,592.00
2023-04-02T06:45:35.324Z,604.00
2023-04-02T06:46:35.038Z,584.00
2023-04-02T06:47:35.128Z,612.00
2023-04-02T06:48:35.208Z,684.00
2023-04-02T06:49:35.294Z,648.00
2023-04-02T06:50:35.432Z,640.00
2023-04-02T06:51:35.594Z,704.00
2023-04-02T06:52:35.635Z,608.00
2023-04-02T06:53:35.787Z,620.00
2023-04-02T06:54:35.920Z,636.00
2023-04-02T06:55:36.276Z,632.00
2023-04-02T06:56:36.211Z,600.00
2023-04-02T06:57:36.409Z,612.00
2023-04-02T06:58:36.459Z,620.00
2023-04-02T06:59:36.627Z,704.00
2023-04-02T07:00:36.738Z,744.00
2023-04-02T07:01:36.995Z,776.00
2023-04-02T07:02:37.156Z,768.00
2023-04-02T07:03:37.176Z,732.00
2023-04-02T07:04:37.315Z,760.00
2023-04-02T07:05:37.558Z,688.00
2023-04-02T07:06:37.474Z,756.00
2023-04-02T07:07:37.582Z,760.00
2023-04-02T07:08:37.733Z,772.00
2023-04-02T07:09:37.822Z,780.00
2023-04-02T07:10:37.934Z,788.00
2023-04-02T07:11:38.102Z,780.00
2023-04-02T07:12:38.258Z,792.00
2023-04-02T07:13:38.402Z,948.00
2023-04-02T07:14:38.487Z,1012.00
2023-04-02T07:15:38.778Z,996.00
2023-04-02T07:16:38.745Z,1212.00
2023-04-02T07:17:38.943Z,1056.00
2023-04-02T07:18:39.065Z,1064.00
2023-04-02T07:19:39.217Z,1176.00
2023-04-02T07:20:39.360Z,1276.00
2023-04-02T07:21:39.485Z,1376.00
2023-04-02T07:22:39.544Z,1164.00
2023-04-02T07:23:39.786Z,1676.00
2023-04-02T07:24:39.808Z,2012.00
2023-04-02T07:25:39.924Z,2376.00
2023-04-02T07:26:40.082Z,2048.00
2023-04-02T07:27:40.220Z,2436.00
2023-04-02T07:28:40.497Z,2752.00
2023-04-02T07:29:40.433Z,2196.00
2023-04-02T07:30:40.734Z,1796.00
2023-04-02T07:31:40.766Z,1692.00
2023-04-02T07:32:40.854Z,1436.00
2023-04-02T07:33:42.230Z,1260.00
2023-04-02T07:34:41.124Z,1336.00
2023-04-02T07:35:41.293Z,1216.00
2023-04-02T07:36:41.440Z,1244.00
2023-04-02T07:37:41.537Z,1408.00
2023-04-02T07:38:41.709Z,1228.00
2023-04-02T07:39:41.869Z,1236.00
2023-04-02T07:40:42.034Z,1236.00
2023-04-02T07:41:42.085Z,1428.00
2023-04-02T07:42:42.175Z,1516.00
2023-04-02T07:43:42.321Z,1720.00
2023-04-02T07:44:42.472Z,1696.00
2023-04-02T07:45:42.629Z,1888.00
2023-04-02T07:46:42.801Z,2464.00
2023-04-02T07:47:42.926Z,2352.00
2023-04-02T07:48:42.989Z,2016.00
2023-04-02T07:49:43.115Z,2020.00
2023-04-02T07:50:43.317Z,2500.00
2023-04-02T07:51:43.380Z,2308.00
2023-04-02T07:52:43.509Z,2440.00
2023-04-02T07:53:43.624Z,2076.00
2023-04-02T07:54:43.776Z,2028.00
2023-04-02T07:55:43.872Z,2024.00
2023-04-02T07:56:44.036Z,1984.00
2023-04-02T07:57:46.388Z,2128.00
2023-04-02T07:58:44.236Z,2376.00
2023-04-02T07:59:44.417Z,2388.00
2023-04-02T08:00:44.534Z,2364.00
2023-04-02T08:01:44.756Z,2308.00
2023-04-02T08:02:44.779Z,2120.00
2023-04-02T08:03:44.980Z,2196.00
2023-04-02T08:04:45.164Z,2380.00
2023-04-02T08:05:45.163Z,2376.00
2023-04-02T08:06:45.359Z,2348.00
2023-04-02T08:07:45.492Z,2612.00
2023-04-02T08:08:45.590Z,2804.00
2023-04-02T08:09:45.779Z,2644.00
2023-04-02T08:10:45.793Z,2664.00
2023-04-02T08:11:46.017Z,2680.00
2023-04-02T08:12:46.144Z,2532.00
2023-04-02T08:13:46.179Z,2440.00
2023-04-02T08:14:46.327Z,2716.00
2023-04-02T08:15:46.506Z,2424.00
2023-04-02T08:16:46.754Z,2192.00
2023-04-02T08:17:46.824Z,1944.00
2023-04-02T08:18:46.909Z,1972.00
2023-04-02T08:19:54.687Z,1944.00
2023-04-02T08:20:48.340Z,2176.00
2023-04-02T08:21:47.424Z,2700.00
2023-04-02T08:22:47.465Z,2976.00
2023-04-02T08:23:47.602Z,2968.00
2023-04-02T08:24:47.640Z,2792.00
2023-04-02T08:25:47.776Z,2524.00
2023-04-02T08:26:47.965Z,2264.00
2023-04-02T08:27:48.208Z,2192.00
2023-04-02T08:28:48.195Z,1992.00
2023-04-02T08:29:48.422Z,2184.00
2023-04-02T08:30:48.638Z,2076.00
2023-04-02T08:31:48.717Z,2256.00
2023-04-02T08:32:48.928Z,2388.00
2023-04-02T08:33:48.928Z,2408.00
2023-04-02T08:34:49.084Z,2480.00
2023-04-02T08:35:49.161Z,2196.00
2023-04-02T08:36:49.233Z,2368.00
2023-04-02T08:37:49.411Z,2404.00
2023-04-02T08:38:49.478Z,2532.00
2023-04-02T08:39:49.611Z,2456.00
2023-04-02T08:40:49.902Z,2420.00
2023-04-02T08:41:49.822Z,2364.00
2023-04-02T08:42:50.114Z,2428.00
2023-04-02T08:43:50.112Z,2368.00
2023-04-02T08:44:50.222Z,2612.00
2023-04-02T08:45:50.419Z,2612.00
2023-04-02T08:46:50.584Z,2596.00
2023-04-02T08:47:50.655Z,2396.00
2023-04-02T08:48:50.795Z,2644.00
2023-04-02T08:49:51.135Z,2564.00
2023-04-02T08:50:50.980Z,2912.00
2023-04-02T08:51:51.145Z,2860.00
2023-04-02T08:52:51.226Z,2808.00
2023-04-02T08:53:51.367Z,3252.00
2023-04-02T08:54:51.530Z,3088.00
2023-04-02T08:55:51.662Z,3268.00
2023-04-02T08:56:51.974Z,3304.00
2023-04-02T08:57:51.931Z,3940.00
2023-04-02T08:58:52.180Z,3448.00
2023-04-02T08:59:52.206Z,3392.00
2023-04-02T09:00:52.388Z,3204.00
2023-04-02T09:01:52.591Z,3036.00
2023-04-02T09:02:52.641Z,3044.00
2023-04-02T09:03:52.761Z,3036.00
2023-04-02T09:04:53.011Z,3252.00
2023-04-02T09:05:53.016Z,3036.00
2023-04-02T09:06:53.120Z,3204.00
2023-04-02T09:07:53.313Z,3104.00
2023-04-02T09:08:53.410Z,3376.00
2023-04-02T09:09:53.513Z,3036.00
2023-04-02T09:10:53.662Z,3028.00
2023-04-02T09:11:53.877Z,3276.00
2023-04-02T09:12:53.992Z,3504.00
2023-04-02T09:13:54.126Z,3844.00
2023-04-02T09:14:54.250Z,3832.00
2023-04-02T09:15:54.345Z,4032.00
2023-04-02T09:16:54.487Z,3756.00
2023-04-02T09:17:55.761Z,3180.00
2023-04-02T09:18:54.799Z,2832.00
2023-04-02T09:19:54.901Z,2660.00
2023-04-02T09:20:55.029Z,2448.00
2023-04-02T09:21:55.116Z,2856.00
2023-04-02T09:22:55.255Z,2696.00
2023-04-02T09:23:55.531Z,2776.00
2023-04-02T09:24:55.673Z,2896.00
2023-04-02T09:26:04.242Z,3216.00
2023-04-02T09:26:56.833Z,3708.00
2023-04-02T09:27:55.944Z,4432.00
2023-04-02T09:28:56.117Z,4052.00
2023-04-02T09:29:56.402Z,4072.00
2023-04-02T09:30:56.340Z,4716.00
2023-04-02T09:31:56.651Z,5160.00
2023-04-02T09:32:56.612Z,5284.00
2023-04-02T09:33:56.740Z,5632.00
2023-04-02T09:34:57.061Z,5108.00
2023-04-02T09:35:57.132Z,5240.00
2023-04-02T09:36:57.188Z,5412.00
2023-04-02T09:37:57.342Z,5720.00
2023-04-02T09:38:57.413Z,5988.00
2023-04-02T09:39:57.609Z,5892.00
2023-04-02T09:40:57.695Z,6072.00
2023-04-02T09:42:05.387Z,5884.00
2023-04-02T09:42:59.056Z,5880.00
2023-04-02T09:43:58.185Z,5288.00
2023-04-02T09:44:58.250Z,5220.00
2023-04-02T09:45:58.409Z,5440.00
2023-04-02T09:46:58.571Z,5424.00
2023-04-02T09:47:58.642Z,5836.00
2023-04-02T09:48:58.758Z,5816.00
2023-04-02T09:49:58.955Z,5368.00
2023-04-02T09:50:59.024Z,4872.00
2023-04-02T09:51:59.180Z,4128.00
2023-04-02T09:52:59.242Z,4036.00
2023-04-02T09:53:59.428Z,3916.00
2023-04-02T09:54:59.577Z,4032.00
2023-04-02T09:55:59.659Z,4028.00
2023-04-02T09:56:59.840Z,4120.00
2023-04-02T09:58:01.931Z,3808.00
2023-04-02T09:59:00.110Z,3908.00
2023-04-02T10:00:00.288Z,3820.00
2023-04-02T10:01:00.388Z,3876.00
2023-04-02T10:02:00.518Z,3956.00
2023-04-02T10:03:00.670Z,4000.00
2023-04-02T10:04:00.862Z,3900.00
2023-04-02T10:05:00.871Z,4132.00
2023-04-02T10:06:00.968Z,4616.00
2023-04-02T10:07:01.085Z,5024.00
2023-04-02T10:08:01.299Z,5288.00
2023-04-02T10:09:01.324Z,4592.00
2023-04-02T10:10:01.437Z,5000.00
2023-04-02T10:11:01.554Z,4848.00
2023-04-02T10:12:01.674Z,5272.00
2023-04-02T10:13:01.880Z,5584.00
2023-04-02T10:14:01.983Z,5840.00
2023-04-02T10:15:02.125Z,6008.00
2023-04-02T10:16:02.233Z,5196.00
2023-04-02T10:17:02.371Z,5348.00
2023-04-02T10:18:02.652Z,5204.00
2023-04-02T10:19:02.658Z,5100.00
2023-04-02T10:20:02.823Z,5600.00
2023-04-02T10:21:02.871Z,5380.00
2023-04-02T10:22:03.015Z,5856.00
2023-04-02T10:23:04.901Z,5064.00
2023-04-02T10:24:03.355Z,5112.00
2023-04-02T10:25:03.475Z,5640.00
2023-04-02T10:26:03.611Z,5760.00
2023-04-02T10:27:03.853Z,6076.00
2023-04-02T10:28:03.833Z,5764.00
2023-04-02T10:29:06.752Z,6860.00
2023-04-02T10:30:04.140Z,6908.00
2023-04-02T10:31:04.355Z,6904.00
2023-04-02T10:32:04.435Z,6552.00
2023-04-02T10:33:04.525Z,6532.00
2023-04-02T10:34:04.781Z,6332.00
2023-04-02T10:35:04.819Z,7240.00
2023-04-02T10:36:04.938Z,7232.00
2023-04-02T10:37:05.104Z,7472.00
2023-04-02T10:38:05.206Z,7948.00
2023-04-02T10:39:05.291Z,7532.00
2023-04-02T10:40:05.464Z,7852.00
2023-04-02T10:41:05.608Z,9140.00
2023-04-02T10:42:05.738Z,8116.00
2023-04-02T10:43:05.818Z,7708.00
2023-04-02T10:44:16.768Z,7524.00
2023-04-02T10:45:07.062Z,6800.00
2023-04-02T10:46:06.324Z,6288.00
2023-04-02T10:47:06.327Z,6576.00
2023-04-02T10:48:06.555Z,6516.00
2023-04-02T10:49:06.682Z,6804.00
2023-04-02T10:50:06.831Z,6528.00
2023-04-02T10:51:06.889Z,6068.00
2023-04-02T10:52:07.048Z,6088.00
2023-04-02T10:53:07.159Z,6060.00
2023-04-02T10:54:07.187Z,5704.00
2023-04-02T10:55:07.303Z,6208.00
2023-04-02T10:56:07.492Z,6180.00
2023-04-02T10:57:07.664Z,5864.00
2023-04-02T10:58:07.739Z,6460.00
2023-04-02T10:59:07.863Z,6876.00
2023-04-02T11:00:07.984Z,6876.00
2023-04-02T11:01:08.260Z,7232.00
2023-04-02T11:02:08.251Z,7388.00
2023-04-02T11:03:08.421Z,7600.00
2023-04-02T11:04:08.499Z,7864.00
2023-04-02T11:05:08.601Z,8140.00
2023-04-02T11:06:09.727Z,7928.00
2023-04-02T11:07:14.331Z,7936.00
2023-04-02T11:08:10.144Z,7980.00
2023-04-02T11:09:09.131Z,7272.00
2023-04-02T11:10:09.266Z,6524.00
2023-04-02T11:11:09.464Z,6504.00
2023-04-02T11:12:09.507Z,6400.00
2023-04-02T11:13:09.690Z,6304.00
2023-04-02T11:14:09.799Z,5656.00
2023-04-02T11:15:09.895Z,6340.00
2023-04-02T11:16:10.071Z,7176.00
2023-04-02T11:17:10.143Z,7376.00
2023-04-02T11:18:10.260Z,7400.00
2023-04-02T11:19:10.467Z,7196.00
2023-04-02T11:20:10.588Z,7928.00
2023-04-02T11:21:10.666Z,8144.00
2023-04-02T11:22:10.895Z,7896.00
2023-04-02T11:23:10.958Z,7760.00
2023-04-02T11:24:11.049Z,8152.00
2023-04-02T11:25:11.155Z,9452.00
2023-04-02T11:26:11.293Z,7460.00
2023-04-02T11:27:11.477Z,7672.00
2023-04-02T11:28:11.540Z,7656.00
2023-04-02T11:29:11.669Z,6508.00
2023-04-02T11:30:12.005Z,8152.00
2023-04-02T11:31:12.015Z,8364.00
2023-04-02T11:32:12.072Z,7456.00
2023-04-02T11:33:12.195Z,6808.00
2023-04-02T11:34:12.471Z,5908.00
2023-04-02T11:35:12.500Z,5380.00
2023-04-02T11:36:12.740Z,5208.00
2023-04-02T11:37:12.737Z,5440.00
2023-04-02T11:38:12.973Z,5408.00
2023-04-02T11:39:17.550Z,5524.00
2023-04-02T11:40:13.284Z,6064.00
2023-04-02T11:41:13.325Z,5640.00
2023-04-02T11:42:13.564Z,5780.00
2023-04-02T11:43:13.564Z,5752.00
2023-04-02T11:44:13.676Z,6348.00
2023-04-02T11:45:13.779Z,6188.00
2023-04-02T11:46:13.973Z,6384.00
2023-04-02T11:47:14.149Z,6572.00
2023-04-02T11:48:14.215Z,6012.00
2023-04-02T11:49:14.321Z,6876.00
2023-04-02T11:50:14.486Z,6084.00
2023-04-02T11:51:14.928Z,5528.00
2023-04-02T11:52:14.745Z,5372.00
2023-04-02T11:53:14.839Z,6092.00
2023-04-02T11:54:15.199Z,6328.00
2023-04-02T11:55:15.856Z,5972.00
2023-04-02T11:56:15.271Z,5608.00
2023-04-02T11:57:15.369Z,6196.00
2023-04-02T11:58:15.577Z,6056.00
2023-04-02T11:59:15.619Z,5656.00
2023-04-02T12:00:17.899Z,6500.00
2023-04-02T12:01:15.896Z,6916.00
2023-04-02T12:02:16.041Z,6792.00
2023-04-02T12:03:16.247Z,6916.00
2023-04-02T12:04:16.298Z,6524.00
2023-04-02T12:05:16.648Z,6828.00
2023-04-02T12:06:17.494Z,6516.00
2023-04-02T12:07:16.697Z,6688.00
2023-04-02T12:08:16.969Z,6924.00
2023-04-02T12:09:16.986Z,7220.00
2023-04-02T12:10:17.100Z,7932.00
2023-04-02T12:11:17.275Z,7388.00
2023-04-02T12:12:17.438Z,7128.00
2023-04-02T12:13:17.535Z,7024.00
2023-04-02T12:14:17.580Z,6816.00
2023-04-02T12:15:17.742Z,6932.00
2023-04-02T12:16:17.920Z,6728.00
2023-04-02T12:17:18.099Z,6712.00
2023-04-02T12:18:18.157Z,6716.00
2023-04-02T12:19:18.299Z,6408.00
2023-04-02T12:20:18.380Z,6792.00
2023-04-02T12:21:18.554Z,7152.00
2023-04-02T12:22:18.646Z,7308.00
2023-04-02T12:23:18.797Z,7612.00
2023-04-02T12:24:18.980Z,7872.00
2023-04-02T12:25:19.034Z,7708.00
2023-04-02T12:26:19.833Z,7940.00
2023-04-02T12:27:19.310Z,8400.00
2023-04-02T12:28:19.405Z,8800.00
2023-04-02T12:29:19.518Z,9136.00
2023-04-02T12:30:19.666Z,8992.00
2023-04-02T12:31:19.837Z,8896.00
2023-04-02T12:32:19.898Z,9260.00
2023-04-02T12:33:20.077Z,9176.00
2023-04-02T12:34:20.215Z,7848.00
2023-04-02T12:35:20.306Z,7308.00
2023-04-02T12:36:20.450Z,8760.00
2023-04-02T12:37:20.588Z,8048.00
2023-04-02T12:38:20.763Z,8764.00
2023-04-02T12:39:20.813Z,10176.00
2023-04-02T12:40:20.962Z,9948.00